sensor_id;sensor_type;location;lat;lon;timestamp;P1;durP1;ratioP1;P2;durP2;ratioP2
73841;SDS011;62184;52.006;5.924;2022-08-30T00:00:54;8.43;;;4.72;;
73841;SDS011;62184;52.006;5.924;2022-08-30T00:03:21;11.68;;;5.82;;
73841;SDS011;62184;52.006;5.924;2022-08-30T00:05:48;11.38;;;5.50;;
73841;SDS011;62184;52.006;5.924;2022-08-30T00:08:14;9.90;;;5.32;;
73841;SDS011;62184;52.006;5.924;2022-08-30T00:10:41;8.95;;;5.28;;
73841;SDS011;62184;52.006;5.924;2022-08-30T00:13:09;8.43;;;5.88;;
73841;SDS011;62184;52.006;5.924;2022-08-30T00:15:39;11.00;;;5.60;;
73841;SDS011;62184;52.006;5.924;2022-08-30T00:18:07;11.73;;;5.75;;
73841;SDS011;62184;52.006;5.924;2022-08-30T00:20:35;9.35;;;5.88;;
73841;SDS011;62184;52.006;5.924;2022-08-30T00:23:03;9.77;;;5.05;;
73841;SDS011;62184;52.006;5.924;2022-08-30T00:25:31;9.52;;;6.03;;
73841;SDS011;62184;52.006;5.924;2022-08-30T00:27:57;9.13;;;5.80;;
73841;SDS011;62184;52.006;5.924;2022-08-30T00:30:24;8.73;;;5.85;;
73841;SDS011;62184;52.006;5.924;2022-08-30T00:32:54;8.95;;;5.93;;
73841;SDS011;62184;52.006;5.924;2022-08-30T00:35:20;8.85;;;6.25;;
73841;SDS011;62184;52.006;5.924;2022-08-30T00:37:48;11.43;;;6.07;;
73841;SDS011;62184;52.006;5.924;2022-08-30T00:40:14;9.73;;;6.47;;
73841;SDS011;62184;52.006;5.924;2022-08-30T00:42:42;9.88;;;6.22;;
73841;SDS011;62184;52.006;5.924;2022-08-30T00:45:10;9.65;;;6.25;;
73841;SDS011;62184;52.006;5.924;2022-08-30T00:47:41;10.38;;;6.65;;
73841;SDS011;62184;52.006;5.924;2022-08-30T00:50:10;8.13;;;6.03;;
73841;SDS011;62184;52.006;5.924;2022-08-30T00:52:40;10.07;;;6.07;;
73841;SDS011;62184;52.006;5.924;2022-08-30T00:55:12;9.07;;;5.82;;
73841;SDS011;62184;52.006;5.924;2022-08-30T00:57:43;10.25;;;6.90;;
73841;SDS011;62184;52.006;5.924;2022-08-30T01:00:13;12.52;;;7.57;;
73841;SDS011;62184;52.006;5.924;2022-08-30T01:02:40;10.55;;;6.50;;
73841;SDS011;62184;52.006;5.924;2022-08-30T01:05:10;11.82;;;6.88;;
73841;SDS011;62184;52.006;5.924;2022-08-30T01:07:39;12.30;;;7.00;;
73841;SDS011;62184;52.006;5.924;2022-08-30T01:10:07;9.88;;;6.70;;
73841;SDS011;62184;52.006;5.924;2022-08-30T01:12:38;9.82;;;6.38;;
73841;SDS011;62184;52.006;5.924;2022-08-30T01:15:06;11.93;;;6.35;;
73841;SDS011;62184;52.006;5.924;2022-08-30T01:17:34;12.00;;;7.18;;
73841;SDS011;62184;52.006;5.924;2022-08-30T01:20:04;10.80;;;7.38;;
73841;SDS011;62184;52.006;5.924;2022-08-30T01:22:38;11.30;;;7.20;;
73841;SDS011;62184;52.006;5.924;2022-08-30T01:25:16;12.05;;;7.20;;
73841;SDS011;62184;52.006;5.924;2022-08-30T01:27:48;12.00;;;6.63;;
73841;SDS011;62184;52.006;5.924;2022-08-30T01:30:20;10.95;;;6.45;;
73841;SDS011;62184;52.006;5.924;2022-08-30T01:32:47;12.27;;;6.97;;
73841;SDS011;62184;52.006;5.924;2022-08-30T01:35:14;11.95;;;6.97;;
73841;SDS011;62184;52.006;5.924;2022-08-30T01:37:43;10.93;;;6.93;;
73841;SDS011;62184;52.006;5.924;2022-08-30T01:40:11;11.02;;;6.85;;
73841;SDS011;62184;52.006;5.924;2022-08-30T01:42:41;11.25;;;8.02;;
73841;SDS011;62184;52.006;5.924;2022-08-30T01:45:08;11.40;;;7.45;;
73841;SDS011;62184;52.006;5.924;2022-08-30T01:47:36;10.45;;;7.18;;
73841;SDS011;62184;52.006;5.924;2022-08-30T01:50:03;10.32;;;6.93;;
73841;SDS011;62184;52.006;5.924;2022-08-30T01:52:32;10.90;;;6.95;;
73841;SDS011;62184;52.006;5.924;2022-08-30T01:54:59;11.70;;;7.88;;
73841;SDS011;62184;52.006;5.924;2022-08-30T01:57:28;14.68;;;8.07;;
73841;SDS011;62184;52.006;5.924;2022-08-30T01:59:54;11.90;;;7.95;;
73841;SDS011;62184;52.006;5.924;2022-08-30T02:02:22;10.48;;;7.55;;
73841;SDS011;62184;52.006;5.924;2022-08-30T02:04:54;12.25;;;8.15;;
73841;SDS011;62184;52.006;5.924;2022-08-30T02:07:22;14.48;;;7.75;;
73841;SDS011;62184;52.006;5.924;2022-08-30T02:09:49;12.13;;;8.32;;
73841;SDS011;62184;52.006;5.924;2022-08-30T02:12:16;13.02;;;7.95;;
73841;SDS011;62184;52.006;5.924;2022-08-30T02:14:46;12.63;;;7.53;;
73841;SDS011;62184;52.006;5.924;2022-08-30T02:17:13;14.23;;;7.75;;
73841;SDS011;62184;52.006;5.924;2022-08-30T02:19:42;12.85;;;7.72;;
73841;SDS011;62184;52.006;5.924;2022-08-30T02:22:08;11.20;;;7.80;;
73841;SDS011;62184;52.006;5.924;2022-08-30T02:24:35;13.27;;;7.85;;
73841;SDS011;62184;52.006;5.924;2022-08-30T02:27:02;11.93;;;8.15;;
73841;SDS011;62184;52.006;5.924;2022-08-30T02:29:29;12.13;;;7.68;;
73841;SDS011;62184;52.006;5.924;2022-08-30T02:31:58;13.00;;;8.10;;
73841;SDS011;62184;52.006;5.924;2022-08-30T02:34:25;11.75;;;7.45;;
73841;SDS011;62184;52.006;5.924;2022-08-30T02:36:51;11.10;;;8.00;;
73841;SDS011;62184;52.006;5.924;2022-08-30T02:39:18;12.48;;;8.32;;
73841;SDS011;62184;52.006;5.924;2022-08-30T02:41:44;11.15;;;7.78;;
73841;SDS011;62184;52.006;5.924;2022-08-30T02:44:10;12.02;;;7.82;;
73841;SDS011;62184;52.006;5.924;2022-08-30T02:46:37;12.50;;;7.88;;
73841;SDS011;62184;52.006;5.924;2022-08-30T02:49:06;11.90;;;7.93;;
73841;SDS011;62184;52.006;5.924;2022-08-30T02:51:32;12.67;;;8.67;;
73841;SDS011;62184;52.006;5.924;2022-08-30T02:54:00;12.00;;;7.72;;
73841;SDS011;62184;52.006;5.924;2022-08-30T02:56:26;14.73;;;8.77;;
73841;SDS011;62184;52.006;5.924;2022-08-30T02:58:52;12.40;;;8.90;;
73841;SDS011;62184;52.006;5.924;2022-08-30T03:01:19;12.73;;;8.77;;
73841;SDS011;62184;52.006;5.924;2022-08-30T03:03:46;13.73;;;8.47;;
73841;SDS011;62184;52.006;5.924;2022-08-30T03:06:15;14.50;;;8.57;;
73841;SDS011;62184;52.006;5.924;2022-08-30T03:08:42;13.38;;;9.40;;
73841;SDS011;62184;52.006;5.924;2022-08-30T03:11:09;13.43;;;8.45;;
73841;SDS011;62184;52.006;5.924;2022-08-30T03:13:36;14.10;;;9.90;;
73841;SDS011;62184;52.006;5.924;2022-08-30T03:16:02;13.13;;;8.53;;
73841;SDS011;62184;52.006;5.924;2022-08-30T03:18:29;15.35;;;9.85;;
73841;SDS011;62184;52.006;5.924;2022-08-30T03:20:55;14.57;;;10.07;;
73841;SDS011;62184;52.006;5.924;2022-08-30T03:23:24;17.00;;;10.68;;
73841;SDS011;62184;52.006;5.924;2022-08-30T03:25:51;15.88;;;9.90;;
73841;SDS011;62184;52.006;5.924;2022-08-30T03:28:17;15.80;;;10.20;;
73841;SDS011;62184;52.006;5.924;2022-08-30T03:30:44;15.38;;;9.13;;
73841;SDS011;62184;52.006;5.924;2022-08-30T03:33:10;14.60;;;9.15;;
73841;SDS011;62184;52.006;5.924;2022-08-30T03:35:37;15.10;;;9.02;;
73841;SDS011;62184;52.006;5.924;2022-08-30T03:38:03;15.95;;;9.88;;
73841;SDS011;62184;52.006;5.924;2022-08-30T03:40:32;16.70;;;10.30;;
73841;SDS011;62184;52.006;5.924;2022-08-30T03:42:59;14.45;;;9.48;;
73841;SDS011;62184;52.006;5.924;2022-08-30T03:45:25;16.05;;;9.70;;
73841;SDS011;62184;52.006;5.924;2022-08-30T03:47:52;12.88;;;9.10;;
73841;SDS011;62184;52.006;5.924;2022-08-30T03:50:18;14.68;;;9.73;;
73841;SDS011;62184;52.006;5.924;2022-08-30T03:52:44;14.30;;;9.03;;
73841;SDS011;62184;52.006;5.924;2022-08-30T03:55:11;14.52;;;9.10;;
73841;SDS011;62184;52.006;5.924;2022-08-30T03:57:40;12.40;;;8.25;;
73841;SDS011;62184;52.006;5.924;2022-08-30T04:00:07;14.57;;;9.25;;
73841;SDS011;62184;52.006;5.924;2022-08-30T04:02:35;15.07;;;9.95;;
73841;SDS011;62184;52.006;5.924;2022-08-30T04:05:01;13.93;;;10.07;;
73841;SDS011;62184;52.006;5.924;2022-08-30T04:07:28;13.43;;;9.48;;
73841;SDS011;62184;52.006;5.924;2022-08-30T04:09:55;15.23;;;9.32;;
73841;SDS011;62184;52.006;5.924;2022-08-30T04:12:21;12.77;;;9.02;;
73841;SDS011;62184;52.006;5.924;2022-08-30T04:14:50;15.30;;;9.75;;
73841;SDS011;62184;52.006;5.924;2022-08-30T04:17:17;14.57;;;9.53;;
73841;SDS011;62184;52.006;5.924;2022-08-30T04:19:43;15.20;;;9.02;;
73841;SDS011;62184;52.006;5.924;2022-08-30T04:22:10;14.68;;;9.40;;
73841;SDS011;62184;52.006;5.924;2022-08-30T04:24:36;13.07;;;8.63;;
73841;SDS011;62184;52.006;5.924;2022-08-30T04:27:03;14.63;;;8.73;;
73841;SDS011;62184;52.006;5.924;2022-08-30T04:29:30;13.43;;;8.67;;
73841;SDS011;62184;52.006;5.924;2022-08-30T04:32:00;15.25;;;9.20;;
73841;SDS011;62184;52.006;5.924;2022-08-30T04:34:26;13.20;;;8.73;;
73841;SDS011;62184;52.006;5.924;2022-08-30T04:36:53;11.82;;;8.48;;
73841;SDS011;62184;52.006;5.924;2022-08-30T04:39:19;13.77;;;9.10;;
73841;SDS011;62184;52.006;5.924;2022-08-30T04:41:46;14.27;;;8.90;;
73841;SDS011;62184;52.006;5.924;2022-08-30T04:44:12;15.10;;;9.23;;
73841;SDS011;62184;52.006;5.924;2022-08-30T04:46:39;13.82;;;8.88;;
73841;SDS011;62184;52.006;5.924;2022-08-30T04:49:08;13.93;;;9.18;;
73841;SDS011;62184;52.006;5.924;2022-08-30T04:51:34;14.02;;;8.85;;
73841;SDS011;62184;52.006;5.924;2022-08-30T04:54:00;13.50;;;9.10;;
73841;SDS011;62184;52.006;5.924;2022-08-30T04:56:27;13.95;;;9.18;;
73841;SDS011;62184;52.006;5.924;2022-08-30T04:58:53;13.05;;;9.10;;
73841;SDS011;62184;52.006;5.924;2022-08-30T05:01:21;13.50;;;8.95;;
73841;SDS011;62184;52.006;5.924;2022-08-30T05:03:50;11.82;;;8.43;;
73841;SDS011;62184;52.006;5.924;2022-08-30T05:06:22;13.55;;;9.00;;
73841;SDS011;62184;52.006;5.924;2022-08-30T05:08:50;13.40;;;7.95;;
73841;SDS011;62184;52.006;5.924;2022-08-30T05:11:16;14.02;;;8.25;;
73841;SDS011;62184;52.006;5.924;2022-08-30T05:13:43;12.65;;;8.40;;
73841;SDS011;62184;52.006;5.924;2022-08-30T05:16:10;12.60;;;8.32;;
73841;SDS011;62184;52.006;5.924;2022-08-30T05:18:38;13.97;;;8.47;;
73841;SDS011;62184;52.006;5.924;2022-08-30T05:21:05;13.23;;;8.25;;
73841;SDS011;62184;52.006;5.924;2022-08-30T05:23:37;12.60;;;8.45;;
73841;SDS011;62184;52.006;5.924;2022-08-30T05:26:06;15.55;;;9.20;;
73841;SDS011;62184;52.006;5.924;2022-08-30T05:28:35;12.95;;;8.32;;
73841;SDS011;62184;52.006;5.924;2022-08-30T05:31:02;12.63;;;7.90;;
73841;SDS011;62184;52.006;5.924;2022-08-30T05:33:39;11.73;;;8.13;;
73841;SDS011;62184;52.006;5.924;2022-08-30T05:36:06;13.80;;;8.18;;
73841;SDS011;62184;52.006;5.924;2022-08-30T05:38:37;10.52;;;7.63;;
73841;SDS011;62184;52.006;5.924;2022-08-30T05:41:04;11.02;;;7.80;;
73841;SDS011;62184;52.006;5.924;2022-08-30T05:43:31;10.60;;;7.93;;
73841;SDS011;62184;52.006;5.924;2022-08-30T05:45:59;12.63;;;8.73;;
73841;SDS011;62184;52.006;5.924;2022-08-30T05:48:27;12.07;;;8.95;;
73841;SDS011;62184;52.006;5.924;2022-08-30T05:51:00;10.88;;;7.95;;
73841;SDS011;62184;52.006;5.924;2022-08-30T05:53:31;10.73;;;7.53;;
73841;SDS011;62184;52.006;5.924;2022-08-30T05:56:02;13.30;;;8.40;;
73841;SDS011;62184;52.006;5.924;2022-08-30T05:58:32;11.77;;;7.65;;
73841;SDS011;62184;52.006;5.924;2022-08-30T06:00:59;13.68;;;8.38;;
73841;SDS011;62184;52.006;5.924;2022-08-30T06:03:25;15.70;;;8.20;;
73841;SDS011;62184;52.006;5.924;2022-08-30T06:05:52;11.57;;;7.75;;
73841;SDS011;62184;52.006;5.924;2022-08-30T06:08:19;12.00;;;7.77;;
73841;SDS011;62184;52.006;5.924;2022-08-30T06:10:46;11.48;;;7.40;;
73841;SDS011;62184;52.006;5.924;2022-08-30T06:13:15;10.80;;;7.50;;
73841;SDS011;62184;52.006;5.924;2022-08-30T06:15:42;10.98;;;7.00;;
73841;SDS011;62184;52.006;5.924;2022-08-30T06:18:09;11.23;;;6.97;;
73841;SDS011;62184;52.006;5.924;2022-08-30T06:20:38;11.18;;;7.03;;
73841;SDS011;62184;52.006;5.924;2022-08-30T06:23:06;8.75;;;6.25;;
73841;SDS011;62184;52.006;5.924;2022-08-30T06:25:34;10.57;;;7.07;;
73841;SDS011;62184;52.006;5.924;2022-08-30T06:28:01;10.90;;;7.70;;
73841;SDS011;62184;52.006;5.924;2022-08-30T06:30:31;10.65;;;6.78;;
73841;SDS011;62184;52.006;5.924;2022-08-30T06:32:58;10.88;;;7.55;;
73841;SDS011;62184;52.006;5.924;2022-08-30T06:35:26;11.88;;;7.35;;
73841;SDS011;62184;52.006;5.924;2022-08-30T06:37:53;11.60;;;7.18;;
73841;SDS011;62184;52.006;5.924;2022-08-30T06:40:20;9.27;;;6.40;;
73841;SDS011;62184;52.006;5.924;2022-08-30T06:42:46;9.63;;;6.47;;
73841;SDS011;62184;52.006;5.924;2022-08-30T06:45:13;11.65;;;6.80;;
73841;SDS011;62184;52.006;5.924;2022-08-30T06:47:42;10.32;;;6.75;;
73841;SDS011;62184;52.006;5.924;2022-08-30T06:50:09;9.57;;;6.13;;
73841;SDS011;62184;52.006;5.924;2022-08-30T06:52:37;8.65;;;6.22;;
73841;SDS011;62184;52.006;5.924;2022-08-30T06:55:05;8.20;;;4.97;;
73841;SDS011;62184;52.006;5.924;2022-08-30T06:57:32;10.15;;;5.50;;
73841;SDS011;62184;52.006;5.924;2022-08-30T06:59:59;7.82;;;5.45;;
73841;SDS011;62184;52.006;5.924;2022-08-30T07:02:25;8.73;;;5.28;;
73841;SDS011;62184;52.006;5.924;2022-08-30T07:04:54;7.47;;;5.30;;
73841;SDS011;62184;52.006;5.924;2022-08-30T07:07:21;9.05;;;5.68;;
73841;SDS011;62184;52.006;5.924;2022-08-30T07:09:47;11.25;;;5.80;;
73841;SDS011;62184;52.006;5.924;2022-08-30T07:12:14;7.72;;;5.18;;
73841;SDS011;62184;52.006;5.924;2022-08-30T07:14:40;8.13;;;5.85;;
73841;SDS011;62184;52.006;5.924;2022-08-30T07:17:07;8.02;;;5.53;;
73841;SDS011;62184;52.006;5.924;2022-08-30T07:19:33;7.85;;;5.10;;
73841;SDS011;62184;52.006;5.924;2022-08-30T07:22:02;7.97;;;4.55;;
73841;SDS011;62184;52.006;5.924;2022-08-30T07:24:29;6.82;;;4.65;;
73841;SDS011;62184;52.006;5.924;2022-08-30T07:26:55;6.50;;;3.85;;
73841;SDS011;62184;52.006;5.924;2022-08-30T07:29:21;7.15;;;3.55;;
73841;SDS011;62184;52.006;5.924;2022-08-30T07:31:48;9.20;;;4.15;;
73841;SDS011;62184;52.006;5.924;2022-08-30T07:34:14;5.88;;;3.83;;
73841;SDS011;62184;52.006;5.924;2022-08-30T07:36:40;6.70;;;3.10;;
73841;SDS011;62184;52.006;5.924;2022-08-30T07:39:09;5.88;;;3.95;;
73841;SDS011;62184;52.006;5.924;2022-08-30T07:41:36;6.20;;;2.90;;
73841;SDS011;62184;52.006;5.924;2022-08-30T07:44:03;5.65;;;3.05;;
73841;SDS011;62184;52.006;5.924;2022-08-30T07:46:30;6.38;;;2.65;;
73841;SDS011;62184;52.006;5.924;2022-08-30T07:48:57;5.07;;;2.10;;
73841;SDS011;62184;52.006;5.924;2022-08-30T07:51:25;4.47;;;2.65;;
73841;SDS011;62184;52.006;5.924;2022-08-30T07:53:53;5.78;;;2.65;;
73841;SDS011;62184;52.006;5.924;2022-08-30T07:56:24;4.95;;;2.72;;
73841;SDS011;62184;52.006;5.924;2022-08-30T07:58:51;5.13;;;2.65;;
73841;SDS011;62184;52.006;5.924;2022-08-30T08:01:18;6.28;;;1.77;;
73841;SDS011;62184;52.006;5.924;2022-08-30T08:03:47;7.50;;;2.70;;
73841;SDS011;62184;52.006;5.924;2022-08-30T08:06:15;6.97;;;2.47;;
73841;SDS011;62184;52.006;5.924;2022-08-30T08:08:44;5.70;;;2.27;;
73841;SDS011;62184;52.006;5.924;2022-08-30T08:11:13;5.15;;;2.15;;
73841;SDS011;62184;52.006;5.924;2022-08-30T08:13:45;4.43;;;2.17;;
73841;SDS011;62184;52.006;5.924;2022-08-30T08:16:13;5.28;;;2.17;;
73841;SDS011;62184;52.006;5.924;2022-08-30T08:18:39;6.18;;;2.65;;
73841;SDS011;62184;52.006;5.924;2022-08-30T08:21:06;7.55;;;2.08;;
73841;SDS011;62184;52.006;5.924;2022-08-30T08:23:32;5.50;;;1.92;;
73841;SDS011;62184;52.006;5.924;2022-08-30T08:25:59;5.32;;;2.03;;
73841;SDS011;62184;52.006;5.924;2022-08-30T08:28:26;4.70;;;2.38;;
73841;SDS011;62184;52.006;5.924;2022-08-30T08:30:55;4.95;;;2.33;;
73841;SDS011;62184;52.006;5.924;2022-08-30T08:33:22;7.25;;;2.42;;
73841;SDS011;62184;52.006;5.924;2022-08-30T08:35:49;4.25;;;1.95;;
73841;SDS011;62184;52.006;5.924;2022-08-30T08:38:15;4.90;;;2.40;;
73841;SDS011;62184;52.006;5.924;2022-08-30T08:40:46;4.05;;;1.77;;
73841;SDS011;62184;52.006;5.924;2022-08-30T08:43:24;5.30;;;2.10;;
73841;SDS011;62184;52.006;5.924;2022-08-30T08:45:56;5.32;;;2.20;;
73841;SDS011;62184;52.006;5.924;2022-08-30T08:48:32;6.00;;;2.20;;
73841;SDS011;62184;52.006;5.924;2022-08-30T08:51:06;5.97;;;2.47;;
73841;SDS011;62184;52.006;5.924;2022-08-30T08:53:36;6.63;;;2.22;;
73841;SDS011;62184;52.006;5.924;2022-08-30T08:56:05;5.18;;;2.50;;
73841;SDS011;62184;52.006;5.924;2022-08-30T08:58:40;5.25;;;2.00;;
73841;SDS011;62184;52.006;5.924;2022-08-30T09:01:13;5.55;;;2.13;;
73841;SDS011;62184;52.006;5.924;2022-08-30T09:03:44;4.70;;;1.90;;
73841;SDS011;62184;52.006;5.924;2022-08-30T09:06:19;6.40;;;2.72;;
73841;SDS011;62184;52.006;5.924;2022-08-30T09:08:58;7.43;;;2.53;;
73841;SDS011;62184;52.006;5.924;2022-08-30T09:11:25;6.45;;;2.58;;
73841;SDS011;62184;52.006;5.924;2022-08-30T09:13:55;5.47;;;2.30;;
73841;SDS011;62184;52.006;5.924;2022-08-30T09:19:30;5.43;;;2.45;;
73841;SDS011;62184;52.006;5.924;2022-08-30T09:22:05;5.30;;;2.10;;
73841;SDS011;62184;52.006;5.924;2022-08-30T09:24:41;5.05;;;2.38;;
73841;SDS011;62184;52.006;5.924;2022-08-30T09:27:15;4.88;;;2.08;;
73841;SDS011;62184;52.006;5.924;2022-08-30T09:29:50;6.73;;;2.13;;
73841;SDS011;62184;52.006;5.924;2022-08-30T09:32:27;4.97;;;1.98;;
73841;SDS011;62184;52.006;5.924;2022-08-30T09:34:59;5.40;;;1.88;;
73841;SDS011;62184;52.006;5.924;2022-08-30T09:37:39;4.47;;;2.50;;
73841;SDS011;62184;52.006;5.924;2022-08-30T09:40:20;5.70;;;2.10;;
73841;SDS011;62184;52.006;5.924;2022-08-30T09:42:59;6.10;;;2.40;;
73841;SDS011;62184;52.006;5.924;2022-08-30T09:45:31;5.35;;;2.30;;
73841;SDS011;62184;52.006;5.924;2022-08-30T09:50:57;5.90;;;2.55;;
73841;SDS011;62184;52.006;5.924;2022-08-30T09:54:05;5.82;;;2.38;;
73841;SDS011;62184;52.006;5.924;2022-08-30T09:56:44;8.10;;;2.37;;
73841;SDS011;62184;52.006;5.924;2022-08-30T09:59:34;5.10;;;2.50;;
73841;SDS011;62184;52.006;5.924;2022-08-30T10:02:24;5.22;;;2.25;;
73841;SDS011;62184;52.006;5.924;2022-08-30T10:05:11;4.93;;;2.15;;
73841;SDS011;62184;52.006;5.924;2022-08-30T10:07:51;5.13;;;2.30;;
73841;SDS011;62184;52.006;5.924;2022-08-30T10:10:28;5.60;;;2.20;;
73841;SDS011;62184;52.006;5.924;2022-08-30T10:13:04;4.53;;;1.42;;
73841;SDS011;62184;52.006;5.924;2022-08-30T10:16:02;5.47;;;2.05;;
73841;SDS011;62184;52.006;5.924;2022-08-30T10:18:46;4.93;;;2.05;;
73841;SDS011;62184;52.006;5.924;2022-08-30T10:21:38;4.00;;;1.70;;
73841;SDS011;62184;52.006;5.924;2022-08-30T10:24:12;5.03;;;2.00;;
73841;SDS011;62184;52.006;5.924;2022-08-30T10:26:43;7.15;;;1.75;;
73841;SDS011;62184;52.006;5.924;2022-08-30T10:29:18;8.40;;;2.28;;
73841;SDS011;62184;52.006;5.924;2022-08-30T10:31:51;6.80;;;2.33;;
73841;SDS011;62184;52.006;5.924;2022-08-30T10:34:25;7.10;;;1.88;;
73841;SDS011;62184;52.006;5.924;2022-08-30T10:37:02;4.27;;;2.10;;
73841;SDS011;62184;52.006;5.924;2022-08-30T10:39:36;5.38;;;2.08;;
73841;SDS011;62184;52.006;5.924;2022-08-30T10:42:09;5.38;;;1.70;;
73841;SDS011;62184;52.006;5.924;2022-08-30T10:44:44;4.78;;;1.65;;
73841;SDS011;62184;52.006;5.924;2022-08-30T10:47:20;4.78;;;1.88;;
73841;SDS011;62184;52.006;5.924;2022-08-30T10:50:00;5.10;;;2.50;;
73841;SDS011;62184;52.006;5.924;2022-08-30T10:52:41;4.65;;;1.90;;
73841;SDS011;62184;52.006;5.924;2022-08-30T10:55:16;4.82;;;2.08;;
73841;SDS011;62184;52.006;5.924;2022-08-30T10:57:49;5.55;;;2.38;;
73841;SDS011;62184;52.006;5.924;2022-08-30T11:00:21;4.93;;;2.22;;
73841;SDS011;62184;52.006;5.924;2022-08-30T11:06:13;4.95;;;2.25;;
73841;SDS011;62184;52.006;5.924;2022-08-30T11:08:55;4.63;;;2.17;;
73841;SDS011;62184;52.006;5.924;2022-08-30T11:11:48;5.85;;;2.97;;
73841;SDS011;62184;52.006;5.924;2022-08-30T11:14:40;6.07;;;2.25;;
73841;SDS011;62184;52.006;5.924;2022-08-30T11:17:19;7.10;;;2.37;;
73841;SDS011;62184;52.006;5.924;2022-08-30T11:19:52;5.03;;;2.53;;
73841;SDS011;62184;52.006;5.924;2022-08-30T11:22:23;5.70;;;2.40;;
73841;SDS011;62184;52.006;5.924;2022-08-30T11:25:08;5.68;;;2.25;;
73841;SDS011;62184;52.006;5.924;2022-08-30T11:27:46;6.20;;;2.45;;
73841;SDS011;62184;52.006;5.924;2022-08-30T11:36:12;6.88;;;2.60;;
73841;SDS011;62184;52.006;5.924;2022-08-30T11:42:27;4.45;;;2.15;;
73841;SDS011;62184;52.006;5.924;2022-08-30T11:51:27;3.78;;;1.58;;
73841;SDS011;62184;52.006;5.924;2022-08-30T11:54:24;5.35;;;2.08;;
73841;SDS011;62184;52.006;5.924;2022-08-30T11:57:05;4.93;;;1.52;;
73841;SDS011;62184;52.006;5.924;2022-08-30T11:59:51;5.53;;;2.23;;
73841;SDS011;62184;52.006;5.924;2022-08-30T12:02:44;5.50;;;1.70;;
73841;SDS011;62184;52.006;5.924;2022-08-30T12:14:33;5.13;;;1.50;;
73841;SDS011;62184;52.006;5.924;2022-08-30T12:20:24;4.75;;;1.70;;
73841;SDS011;62184;52.006;5.924;2022-08-30T12:22:55;5.90;;;2.10;;
73841;SDS011;62184;52.006;5.924;2022-08-30T12:25:41;6.47;;;1.90;;
73841;SDS011;62184;52.006;5.924;2022-08-30T12:28:09;4.67;;;2.00;;
73841;SDS011;62184;52.006;5.924;2022-08-30T12:30:39;4.95;;;1.92;;
73841;SDS011;62184;52.006;5.924;2022-08-30T12:33:10;5.40;;;1.88;;
73841;SDS011;62184;52.006;5.924;2022-08-30T12:35:47;4.10;;;1.83;;
73841;SDS011;62184;52.006;5.924;2022-08-30T12:38:17;4.30;;;1.65;;
73841;SDS011;62184;52.006;5.924;2022-08-30T12:40:49;4.10;;;2.13;;
73841;SDS011;62184;52.006;5.924;2022-08-30T12:43:22;4.07;;;1.77;;
73841;SDS011;62184;52.006;5.924;2022-08-30T12:45:57;5.47;;;2.05;;
73841;SDS011;62184;52.006;5.924;2022-08-30T12:48:35;4.40;;;2.13;;
73841;SDS011;62184;52.006;5.924;2022-08-30T12:51:05;6.78;;;2.20;;
73841;SDS011;62184;52.006;5.924;2022-08-30T12:53:33;7.33;;;2.27;;
73841;SDS011;62184;52.006;5.924;2022-08-30T12:56:03;5.15;;;2.63;;
73841;SDS011;62184;52.006;5.924;2022-08-30T12:58:35;5.10;;;2.17;;
73841;SDS011;62184;52.006;5.924;2022-08-30T13:04:00;5.10;;;1.70;;
73841;SDS011;62184;52.006;5.924;2022-08-30T13:06:39;7.03;;;2.20;;
73841;SDS011;62184;52.006;5.924;2022-08-30T13:09:21;5.75;;;1.88;;
73841;SDS011;62184;52.006;5.924;2022-08-30T13:11:53;3.85;;;1.77;;
73841;SDS011;62184;52.006;5.924;2022-08-30T13:14:28;4.95;;;1.80;;
73841;SDS011;62184;52.006;5.924;2022-08-30T13:17:18;5.40;;;1.30;;
73841;SDS011;62184;52.006;5.924;2022-08-30T13:19:57;4.60;;;1.40;;
73841;SDS011;62184;52.006;5.924;2022-08-30T13:22:29;5.60;;;1.67;;
73841;SDS011;62184;52.006;5.924;2022-08-30T13:24:59;5.72;;;2.20;;
73841;SDS011;62184;52.006;5.924;2022-08-30T13:27:27;6.30;;;2.20;;
73841;SDS011;62184;52.006;5.924;2022-08-30T13:29:54;5.40;;;1.60;;
73841;SDS011;62184;52.006;5.924;2022-08-30T13:32:22;5.47;;;1.70;;
73841;SDS011;62184;52.006;5.924;2022-08-30T13:34:49;6.93;;;2.25;;
73841;SDS011;62184;52.006;5.924;2022-08-30T13:37:19;4.93;;;2.10;;
73841;SDS011;62184;52.006;5.924;2022-08-30T13:39:50;6.93;;;1.98;;
73841;SDS011;62184;52.006;5.924;2022-08-30T13:42:16;4.43;;;2.03;;
73841;SDS011;62184;52.006;5.924;2022-08-30T13:44:42;4.83;;;1.73;;
73841;SDS011;62184;52.006;5.924;2022-08-30T13:47:09;4.00;;;1.70;;
73841;SDS011;62184;52.006;5.924;2022-08-30T13:49:38;5.53;;;1.63;;
73841;SDS011;62184;52.006;5.924;2022-08-30T13:52:05;5.40;;;2.03;;
73841;SDS011;62184;52.006;5.924;2022-08-30T13:54:37;4.45;;;1.80;;
73841;SDS011;62184;52.006;5.924;2022-08-30T13:57:03;5.37;;;2.30;;
73841;SDS011;62184;52.006;5.924;2022-08-30T13:59:30;4.75;;;2.05;;
73841;SDS011;62184;52.006;5.924;2022-08-30T14:01:57;5.53;;;2.47;;
73841;SDS011;62184;52.006;5.924;2022-08-30T14:04:25;5.15;;;1.40;;
73841;SDS011;62184;52.006;5.924;2022-08-30T14:06:52;4.45;;;1.70;;
73841;SDS011;62184;52.006;5.924;2022-08-30T14:09:18;4.10;;;1.80;;
73841;SDS011;62184;52.006;5.924;2022-08-30T14:11:48;4.80;;;2.22;;
73841;SDS011;62184;52.006;5.924;2022-08-30T14:14:14;5.00;;;1.92;;
73841;SDS011;62184;52.006;5.924;2022-08-30T14:16:41;6.57;;;1.52;;
73841;SDS011;62184;52.006;5.924;2022-08-30T14:19:09;4.57;;;2.05;;
73841;SDS011;62184;52.006;5.924;2022-08-30T14:21:37;5.07;;;2.50;;
73841;SDS011;62184;52.006;5.924;2022-08-30T14:24:05;4.60;;;1.83;;
73841;SDS011;62184;52.006;5.924;2022-08-30T14:26:35;6.45;;;1.80;;
73841;SDS011;62184;52.006;5.924;2022-08-30T14:29:08;6.40;;;2.22;;
73841;SDS011;62184;52.006;5.924;2022-08-30T14:31:36;4.50;;;1.83;;
73841;SDS011;62184;52.006;5.924;2022-08-30T14:34:05;6.27;;;1.77;;
73841;SDS011;62184;52.006;5.924;2022-08-30T14:36:34;4.07;;;1.80;;
73841;SDS011;62184;52.006;5.924;2022-08-30T14:39:04;6.00;;;2.30;;
73841;SDS011;62184;52.006;5.924;2022-08-30T14:41:33;4.95;;;1.60;;
73841;SDS011;62184;52.006;5.924;2022-08-30T14:44:07;4.35;;;1.33;;
73841;SDS011;62184;52.006;5.924;2022-08-30T14:46:34;5.00;;;2.10;;
73841;SDS011;62184;52.006;5.924;2022-08-30T14:49:01;5.68;;;1.75;;
73841;SDS011;62184;52.006;5.924;2022-08-30T14:51:27;5.03;;;1.52;;
73841;SDS011;62184;52.006;5.924;2022-08-30T14:53:53;7.05;;;2.47;;
73841;SDS011;62184;52.006;5.924;2022-08-30T14:56:20;4.72;;;1.80;;
73841;SDS011;62184;52.006;5.924;2022-08-30T14:58:48;5.10;;;1.73;;
73841;SDS011;62184;52.006;5.924;2022-08-30T15:01:19;4.65;;;1.90;;
73841;SDS011;62184;52.006;5.924;2022-08-30T15:03:46;4.78;;;2.13;;
73841;SDS011;62184;52.006;5.924;2022-08-30T15:06:12;7.97;;;1.83;;
73841;SDS011;62184;52.006;5.924;2022-08-30T15:08:39;5.15;;;1.90;;
73841;SDS011;62184;52.006;5.924;2022-08-30T15:11:06;5.30;;;2.17;;
73841;SDS011;62184;52.006;5.924;2022-08-30T15:13:34;5.65;;;2.22;;
73841;SDS011;62184;52.006;5.924;2022-08-30T15:16:00;4.47;;;1.30;;
73841;SDS011;62184;52.006;5.924;2022-08-30T15:18:30;5.57;;;2.30;;
73841;SDS011;62184;52.006;5.924;2022-08-30T15:20:56;6.03;;;1.88;;
73841;SDS011;62184;52.006;5.924;2022-08-30T15:23:23;5.70;;;1.67;;
73841;SDS011;62184;52.006;5.924;2022-08-30T15:25:49;3.90;;;1.55;;
73841;SDS011;62184;52.006;5.924;2022-08-30T15:28:15;4.28;;;1.75;;
73841;SDS011;62184;52.006;5.924;2022-08-30T15:30:42;4.75;;;1.95;;
73841;SDS011;62184;52.006;5.924;2022-08-30T15:33:08;4.43;;;2.25;;
73841;SDS011;62184;52.006;5.924;2022-08-30T15:35:37;3.60;;;1.40;;
73841;SDS011;62184;52.006;5.924;2022-08-30T15:38:03;4.78;;;1.90;;
73841;SDS011;62184;52.006;5.924;2022-08-30T15:40:30;4.25;;;1.60;;